This is the latest recevied weather packets stored in our database for station/object KI5GCD-13. If no packets are shown the sender has not sent any weather packets the latest 10 day(s).
| Time | Temp. | Humidity | Pressure | Rain* | Wind** | Luminosity | Snow |
|---|---|---|---|---|---|---|---|
| 1777654787 | 16.67° C | 44% | 1015.6 hPa | 0 mm | 0.89 m/s, 260° | - | - |
| 1777654487 | 17.22° C | 48% | 1015.4 hPa | 0 mm | 1.79 m/s, 356° | - | - |
| 1777654187 | 16.67° C | 43% | 1015.5 hPa | 0 mm | 0.89 m/s, 285° | - | - |
| 1777653887 | 16.67° C | 41% | 1015.5 hPa | 0 mm | 2.68 m/s, 32° | - | - |
| 1777653587 | 16.67° C | 51% | 1015.7 hPa | 0 mm | 0.45 m/s, 314° | - | - |
| 1777653287 | 16.67° C | 52% | 1015.6 hPa | 0 mm | 1.34 m/s, 166° | - | - |
| 1777652987 | 16.11° C | 48% | 1015.7 hPa | 0 mm | 0.45 m/s, 271° | - | - |
| 1777652687 | 16.11° C | 54% | 1015.8 hPa | 0 mm | 0.45 m/s, 194° | - | - |
| 1777652387 | 16.67° C | 56% | 1015.7 hPa | 0 mm | 0.89 m/s, 69° | - | - |
| 1777652087 | 15.56° C | 53% | 1015.9 hPa | 0 mm | 0.45 m/s, 278° | - | - |
| 1777651787 | 15.56° C | 56% | 1015.8 hPa | 0 mm | 1.34 m/s, 26° | - | - |
| 1777651488 | 15.56° C | 56% | 1015.7 hPa | 0 mm | 0.89 m/s, 325° | - | - |
| 1777651187 | 16.11° C | 56% | 1015.7 hPa | 0 mm | 0.89 m/s, 195° | - | - |
| 1777650887 | 15.56° C | 59% | 1015.4 hPa | 0 mm | 0.45 m/s, 251° | - | - |
| 1777650587 | 15.56° C | 56% | 1015.5 hPa | 0 mm | 0.45 m/s, 258° | - | - |
| 1777650287 | 15° C | 56% | 1015.5 hPa | 0 mm | 0 m/s | - | - |
| 1777649987 | 15° C | 61% | 1015.7 hPa | 0 mm | 0.45 m/s, 236° | - | - |
| 1777649687 | 15.56° C | 56% | 1015.5 hPa | 0 mm | 0.89 m/s, 265° | - | - |
| 1777649387 | 15° C | 61% | 1015.6 hPa | 0 mm | 0 m/s | - | - |
| 1777649088 | 15° C | 59% | 1015.4 hPa | 0 mm | 0.89 m/s, 324° | - | - |
| 1777648787 | 14.44° C | 59% | 1015.7 hPa | 0 mm | 1.79 m/s, 56° | - | - |
| 1777648487 | 15° C | 56% | 1015.4 hPa | 0 mm | 1.79 m/s, 86° | - | - |
| 1777648187 | 14.44° C | 63% | 1015.3 hPa | 0 mm | 0.89 m/s, 111° | - | - |
| 1777647887 | 15° C | 65% | 1015.3 hPa | 0 mm | 0.89 m/s, 324° | - | - |
| 1777647587 | 14.44° C | 64% | 1015.2 hPa | 0 mm | 0.45 m/s, 259° | - | - |
* Rain latest hour (hover to see other rain measurements)
** Current wind speed in m/s (hover to see current wind gust speed)